KLMT/LMT METAR and TAF weather

Enter ICAO airport designator
Station Type Date Time Source
KLMT METAR 2019/05/23 18:53 UTC NOAA

KLMT 231853Z 35007KT 10SM BKN044 BKN055 BKN070 14/03 A2993 RMK AO2 SLP115 T01440033


Station Type Date Time Source
KLMT Decoded METAR 2019/05/23 18:53 UTC NOAA

KLAMATH FALLS INTERNATIONAL AIRPORT, OR, United States (KLMT) 42-09N 121-43W 1246M
May 23, 2019 - 02:53 PM EDT / 2019.05.23 1853 UTC
Wind: from the N (350 degrees) at 8 MPH (7 KT):0
Visibility: 10 mile(s):0
Sky conditions: mostly cloudy
Temperature: 57.9 F (14.4 C)
Dew Point: 37.9 F (3.3 C)
Relative Humidity: 47%
Pressure (altimeter): 29.93 in. Hg (1013 hPa)
ob: KLMT 231853Z 35007KT 10SM BKN044 BKN055 BKN070 14/03 A2993 RMK AO2 SLP115 T01440033
cycle: 19

Station Type Date Time Source
KLMT TAF 2019/05/23 18:46 UTC NOAA

TAF KLMT 231743Z 2318/2418 01017G23KT P6SM SCT050 BKN080
FM240400 33010KT P6SM SCT050 SCT080

Example: see airport list